sensor_id;sensor_type;location;lat;lon;timestamp;temperature;humidity
43665;DHT22;29263;48.172;11.484;2024-03-22T00:00:39;6.10;99.90
43665;DHT22;29263;48.172;11.484;2024-03-22T00:03:05;6.10;99.90
43665;DHT22;29263;48.172;11.484;2024-03-22T00:05:30;6.10;99.90
43665;DHT22;29263;48.172;11.484;2024-03-22T00:07:56;6.10;99.90
43665;DHT22;29263;48.172;11.484;2024-03-22T00:10:21;6.10;99.90
43665;DHT22;29263;48.172;11.484;2024-03-22T00:12:49;6.00;99.90
43665;DHT22;29263;48.172;11.484;2024-03-22T00:15:15;6.00;99.90
43665;DHT22;29263;48.172;11.484;2024-03-22T00:17:42;6.00;99.90
43665;DHT22;29263;48.172;11.484;2024-03-22T00:20:07;6.00;99.90
43665;DHT22;29263;48.172;11.484;2024-03-22T00:22:33;5.90;99.90
43665;DHT22;29263;48.172;11.484;2024-03-22T00:24:59;5.90;99.90
43665;DHT22;29263;48.172;11.484;2024-03-22T00:27:24;5.90;99.90
43665;DHT22;29263;48.172;11.484;2024-03-22T00:29:50;5.90;99.90
43665;DHT22;29263;48.172;11.484;2024-03-22T00:32:15;5.90;99.90
43665;DHT22;29263;48.172;11.484;2024-03-22T00:34:41;6.00;99.90
43665;DHT22;29263;48.172;11.484;2024-03-22T00:37:07;5.90;99.90
43665;DHT22;29263;48.172;11.484;2024-03-22T00:39:32;5.90;99.90
43665;DHT22;29263;48.172;11.484;2024-03-22T00:41:58;5.90;99.90
43665;DHT22;29263;48.172;11.484;2024-03-22T00:44:23;5.90;99.90
43665;DHT22;29263;48.172;11.484;2024-03-22T00:46:49;5.90;99.90
43665;DHT22;29263;48.172;11.484;2024-03-22T00:49:15;5.80;99.90
43665;DHT22;29263;48.172;11.484;2024-03-22T00:51:40;5.80;99.90
43665;DHT22;29263;48.172;11.484;2024-03-22T00:54:08;5.70;99.90
43665;DHT22;29263;48.172;11.484;2024-03-22T00:56:34;5.70;99.90
43665;DHT22;29263;48.172;11.484;2024-03-22T00:59:00;5.70;99.90
43665;DHT22;29263;48.172;11.484;2024-03-22T01:01:25;5.70;99.90
43665;DHT22;29263;48.172;11.484;2024-03-22T01:03:51;5.70;99.90
43665;DHT22;29263;48.172;11.484;2024-03-22T01:06:16;5.70;99.90
43665;DHT22;29263;48.172;11.484;2024-03-22T01:08:47;5.70;99.90
43665;DHT22;29263;48.172;11.484;2024-03-22T01:11:13;5.70;99.90
43665;DHT22;29263;48.172;11.484;2024-03-22T01:13:39;5.70;99.90
43665;DHT22;29263;48.172;11.484;2024-03-22T01:16:05;5.70;99.90
43665;DHT22;29263;48.172;11.484;2024-03-22T01:18:30;5.70;99.90
43665;DHT22;29263;48.172;11.484;2024-03-22T01:20:56;5.70;99.90
43665;DHT22;29263;48.172;11.484;2024-03-22T01:23:22;5.70;99.90
43665;DHT22;29263;48.172;11.484;2024-03-22T01:25:47;5.70;99.90
43665;DHT22;29263;48.172;11.484;2024-03-22T01:28:13;5.60;99.90
43665;DHT22;29263;48.172;11.484;2024-03-22T01:30:38;5.70;99.90
43665;DHT22;29263;48.172;11.484;2024-03-22T01:33:04;5.60;99.90
43665;DHT22;29263;48.172;11.484;2024-03-22T01:35:30;5.70;99.90
43665;DHT22;29263;48.172;11.484;2024-03-22T01:37:55;5.60;99.90
43665;DHT22;29263;48.172;11.484;2024-03-22T01:40:21;5.60;99.90
43665;DHT22;29263;48.172;11.484;2024-03-22T01:42:46;5.50;99.90
43665;DHT22;29263;48.172;11.484;2024-03-22T01:45:14;5.50;99.90
43665;DHT22;29263;48.172;11.484;2024-03-22T01:47:40;5.60;99.90
43665;DHT22;29263;48.172;11.484;2024-03-22T01:50:06;5.50;99.90
43665;DHT22;29263;48.172;11.484;2024-03-22T01:52:33;5.50;99.90
43665;DHT22;29263;48.172;11.484;2024-03-22T01:54:58;5.50;99.90
43665;DHT22;29263;48.172;11.484;2024-03-22T01:57:24;5.50;99.90
43665;DHT22;29263;48.172;11.484;2024-03-22T01:59:54;5.50;99.90
43665;DHT22;29263;48.172;11.484;2024-03-22T02:02:21;5.50;99.90
43665;DHT22;29263;48.172;11.484;2024-03-22T02:04:50;5.50;99.90
43665;DHT22;29263;48.172;11.484;2024-03-22T02:07:16;5.40;99.90
43665;DHT22;29263;48.172;11.484;2024-03-22T02:09:41;5.40;99.90
43665;DHT22;29263;48.172;11.484;2024-03-22T02:12:08;5.40;99.90
43665;DHT22;29263;48.172;11.484;2024-03-22T02:14:33;5.40;99.90
43665;DHT22;29263;48.172;11.484;2024-03-22T02:16:59;5.30;99.90
43665;DHT22;29263;48.172;11.484;2024-03-22T02:19:25;5.30;99.90
43665;DHT22;29263;48.172;11.484;2024-03-22T02:21:50;5.30;99.90
43665;DHT22;29263;48.172;11.484;2024-03-22T02:24:16;5.30;99.90
43665;DHT22;29263;48.172;11.484;2024-03-22T02:26:41;5.30;99.90
43665;DHT22;29263;48.172;11.484;2024-03-22T02:29:07;5.20;99.90
43665;DHT22;29263;48.172;11.484;2024-03-22T02:31:32;5.20;99.90
43665;DHT22;29263;48.172;11.484;2024-03-22T02:33:58;5.20;99.90
43665;DHT22;29263;48.172;11.484;2024-03-22T02:36:24;5.20;99.90
43665;DHT22;29263;48.172;11.484;2024-03-22T02:38:50;5.20;99.90
43665;DHT22;29263;48.172;11.484;2024-03-22T02:41:15;5.20;99.90
43665;DHT22;29263;48.172;11.484;2024-03-22T02:43:41;5.10;99.90
43665;DHT22;29263;48.172;11.484;2024-03-22T02:46:06;5.10;99.90
43665;DHT22;29263;48.172;11.484;2024-03-22T02:48:32;5.10;99.90
43665;DHT22;29263;48.172;11.484;2024-03-22T02:50:58;5.10;99.90
43665;DHT22;29263;48.172;11.484;2024-03-22T02:53:23;5.10;99.90
43665;DHT22;29263;48.172;11.484;2024-03-22T02:55:49;5.00;99.90
43665;DHT22;29263;48.172;11.484;2024-03-22T02:58:14;5.00;99.90
43665;DHT22;29263;48.172;11.484;2024-03-22T03:00:40;5.00;99.90
43665;DHT22;29263;48.172;11.484;2024-03-22T03:03:06;5.00;99.90
43665;DHT22;29263;48.172;11.484;2024-03-22T03:05:31;5.00;99.90
43665;DHT22;29263;48.172;11.484;2024-03-22T03:07:57;5.00;99.90
43665;DHT22;29263;48.172;11.484;2024-03-22T03:10:23;5.00;99.90
43665;DHT22;29263;48.172;11.484;2024-03-22T03:12:48;4.90;99.90
43665;DHT22;29263;48.172;11.484;2024-03-22T03:15:15;4.90;99.90
43665;DHT22;29263;48.172;11.484;2024-03-22T03:17:41;4.90;99.90
43665;DHT22;29263;48.172;11.484;2024-03-22T03:20:07;4.80;99.90
43665;DHT22;29263;48.172;11.484;2024-03-22T03:22:34;4.80;99.90
43665;DHT22;29263;48.172;11.484;2024-03-22T03:25:00;4.80;99.90
43665;DHT22;29263;48.172;11.484;2024-03-22T03:27:25;4.80;99.90
43665;DHT22;29263;48.172;11.484;2024-03-22T03:29:51;4.70;99.90
43665;DHT22;29263;48.172;11.484;2024-03-22T03:32:16;4.80;99.90
43665;DHT22;29263;48.172;11.484;2024-03-22T03:34:42;4.70;99.90
43665;DHT22;29263;48.172;11.484;2024-03-22T03:37:08;4.70;99.90
43665;DHT22;29263;48.172;11.484;2024-03-22T03:39:33;4.70;99.90
43665;DHT22;29263;48.172;11.484;2024-03-22T03:41:59;4.70;99.90
43665;DHT22;29263;48.172;11.484;2024-03-22T03:44:24;4.60;99.90
43665;DHT22;29263;48.172;11.484;2024-03-22T03:46:50;4.70;99.90
43665;DHT22;29263;48.172;11.484;2024-03-22T03:49:16;4.70;99.90
43665;DHT22;29263;48.172;11.484;2024-03-22T03:51:41;4.60;99.90
43665;DHT22;29263;48.172;11.484;2024-03-22T03:54:07;4.60;99.90
43665;DHT22;29263;48.172;11.484;2024-03-22T03:56:32;4.60;99.90
43665;DHT22;29263;48.172;11.484;2024-03-22T03:58:58;4.70;99.90
43665;DHT22;29263;48.172;11.484;2024-03-22T04:01:24;4.60;99.90
43665;DHT22;29263;48.172;11.484;2024-03-22T04:03:49;4.60;99.90
43665;DHT22;29263;48.172;11.484;2024-03-22T04:06:15;4.60;99.90
43665;DHT22;29263;48.172;11.484;2024-03-22T04:08:40;4.60;99.90
43665;DHT22;29263;48.172;11.484;2024-03-22T04:11:06;4.60;99.90
43665;DHT22;29263;48.172;11.484;2024-03-22T04:13:32;4.60;99.90
43665;DHT22;29263;48.172;11.484;2024-03-22T04:15:59;4.60;99.90
43665;DHT22;29263;48.172;11.484;2024-03-22T04:18:25;4.60;99.90
43665;DHT22;29263;48.172;11.484;2024-03-22T04:20:57;4.60;99.90
43665;DHT22;29263;48.172;11.484;2024-03-22T04:23:23;4.70;99.90
43665;DHT22;29263;48.172;11.484;2024-03-22T04:25:56;4.50;99.90
43665;DHT22;29263;48.172;11.484;2024-03-22T04:28:23;4.50;99.90
43665;DHT22;29263;48.172;11.484;2024-03-22T04:30:58;4.50;99.90
43665;DHT22;29263;48.172;11.484;2024-03-22T04:33:24;4.50;99.90
43665;DHT22;29263;48.172;11.484;2024-03-22T04:35:50;4.50;99.90
43665;DHT22;29263;48.172;11.484;2024-03-22T04:38:15;4.50;99.90
43665;DHT22;29263;48.172;11.484;2024-03-22T04:40:41;4.50;99.90
43665;DHT22;29263;48.172;11.484;2024-03-22T04:43:08;4.50;99.90
43665;DHT22;29263;48.172;11.484;2024-03-22T04:45:33;4.50;99.90
43665;DHT22;29263;48.172;11.484;2024-03-22T04:48:02;4.40;99.90
43665;DHT22;29263;48.172;11.484;2024-03-22T04:50:27;4.50;99.90
43665;DHT22;29263;48.172;11.484;2024-03-22T04:52:53;4.50;99.90
43665;DHT22;29263;48.172;11.484;2024-03-22T04:55:19;4.60;99.90
43665;DHT22;29263;48.172;11.484;2024-03-22T04:57:44;4.60;99.90
43665;DHT22;29263;48.172;11.484;2024-03-22T05:00:10;4.60;99.90
43665;DHT22;29263;48.172;11.484;2024-03-22T05:02:36;4.70;99.90
43665;DHT22;29263;48.172;11.484;2024-03-22T05:05:02;4.60;99.90
43665;DHT22;29263;48.172;11.484;2024-03-22T05:07:27;4.60;99.90
43665;DHT22;29263;48.172;11.484;2024-03-22T05:09:53;4.70;99.90
43665;DHT22;29263;48.172;11.484;2024-03-22T05:12:19;4.70;99.90
43665;DHT22;29263;48.172;11.484;2024-03-22T05:14:44;4.80;99.90
43665;DHT22;29263;48.172;11.484;2024-03-22T05:17:10;4.80;99.90
43665;DHT22;29263;48.172;11.484;2024-03-22T05:19:35;4.90;99.90
43665;DHT22;29263;48.172;11.484;2024-03-22T05:22:01;5.00;99.90
43665;DHT22;29263;48.172;11.484;2024-03-22T05:24:28;5.00;99.90
43665;DHT22;29263;48.172;11.484;2024-03-22T05:26:53;5.10;99.90
43665;DHT22;29263;48.172;11.484;2024-03-22T05:29:19;5.20;99.90
43665;DHT22;29263;48.172;11.484;2024-03-22T05:31:49;5.20;99.90
43665;DHT22;29263;48.172;11.484;2024-03-22T05:34:16;5.30;99.90
43665;DHT22;29263;48.172;11.484;2024-03-22T05:36:42;5.30;99.90
43665;DHT22;29263;48.172;11.484;2024-03-22T05:39:08;5.30;99.90
43665;DHT22;29263;48.172;11.484;2024-03-22T05:41:36;5.40;99.90
43665;DHT22;29263;48.172;11.484;2024-03-22T05:44:02;5.40;99.90
43665;DHT22;29263;48.172;11.484;2024-03-22T05:46:28;5.50;99.90
43665;DHT22;29263;48.172;11.484;2024-03-22T05:48:54;5.60;99.90
43665;DHT22;29263;48.172;11.484;2024-03-22T05:51:20;5.60;99.90
43665;DHT22;29263;48.172;11.484;2024-03-22T05:53:45;5.60;99.90
43665;DHT22;29263;48.172;11.484;2024-03-22T05:56:11;5.70;99.90
43665;DHT22;29263;48.172;11.484;2024-03-22T05:58:36;5.60;99.90
43665;DHT22;29263;48.172;11.484;2024-03-22T06:01:02;5.70;99.90
43665;DHT22;29263;48.172;11.484;2024-03-22T06:03:28;5.70;99.90
43665;DHT22;29263;48.172;11.484;2024-03-22T06:05:54;5.70;99.90
43665;DHT22;29263;48.172;11.484;2024-03-22T06:08:22;5.70;99.90
43665;DHT22;29263;48.172;11.484;2024-03-22T06:10:48;5.70;99.90
43665;DHT22;29263;48.172;11.484;2024-03-22T06:13:13;5.90;99.90
43665;DHT22;29263;48.172;11.484;2024-03-22T06:15:42;5.70;99.90
43665;DHT22;29263;48.172;11.484;2024-03-22T06:18:11;5.70;99.90
43665;DHT22;29263;48.172;11.484;2024-03-22T06:20:36;5.70;99.90
43665;DHT22;29263;48.172;11.484;2024-03-22T06:23:02;5.70;99.90
43665;DHT22;29263;48.172;11.484;2024-03-22T06:25:28;5.70;99.90
43665;DHT22;29263;48.172;11.484;2024-03-22T06:27:53;5.70;99.90
43665;DHT22;29263;48.172;11.484;2024-03-22T06:30:19;5.70;99.90
43665;DHT22;29263;48.172;11.484;2024-03-22T06:32:44;5.80;99.90
43665;DHT22;29263;48.172;11.484;2024-03-22T06:35:10;5.90;99.90
43665;DHT22;29263;48.172;11.484;2024-03-22T06:37:37;6.00;99.90
43665;DHT22;29263;48.172;11.484;2024-03-22T06:40:03;6.10;99.90
43665;DHT22;29263;48.172;11.484;2024-03-22T06:42:30;6.30;99.90
43665;DHT22;29263;48.172;11.484;2024-03-22T06:44:56;6.40;99.90
43665;DHT22;29263;48.172;11.484;2024-03-22T06:47:21;6.60;99.90
43665;DHT22;29263;48.172;11.484;2024-03-22T06:49:48;6.70;99.90
43665;DHT22;29263;48.172;11.484;2024-03-22T06:52:14;6.90;99.90
43665;DHT22;29263;48.172;11.484;2024-03-22T06:54:41;7.10;99.90
43665;DHT22;29263;48.172;11.484;2024-03-22T06:57:07;7.20;99.90
43665;DHT22;29263;48.172;11.484;2024-03-22T06:59:32;7.30;99.90
43665;DHT22;29263;48.172;11.484;2024-03-22T07:01:58;7.50;99.90
43665;DHT22;29263;48.172;11.484;2024-03-22T07:04:24;7.60;99.90
43665;DHT22;29263;48.172;11.484;2024-03-22T07:06:49;7.70;99.90
43665;DHT22;29263;48.172;11.484;2024-03-22T07:09:15;7.90;99.90
43665;DHT22;29263;48.172;11.484;2024-03-22T07:11:41;7.90;99.90
43665;DHT22;29263;48.172;11.484;2024-03-22T07:14:06;8.10;99.90
43665;DHT22;29263;48.172;11.484;2024-03-22T07:16:32;8.20;99.90
43665;DHT22;29263;48.172;11.484;2024-03-22T07:18:58;8.30;99.90
43665;DHT22;29263;48.172;11.484;2024-03-22T07:21:24;8.50;99.90
43665;DHT22;29263;48.172;11.484;2024-03-22T07:23:49;8.60;99.90
43665;DHT22;29263;48.172;11.484;2024-03-22T07:26:15;8.70;99.90
43665;DHT22;29263;48.172;11.484;2024-03-22T07:28:41;8.70;99.90
43665;DHT22;29263;48.172;11.484;2024-03-22T07:31:06;8.70;99.90
43665;DHT22;29263;48.172;11.484;2024-03-22T07:33:33;8.70;99.90
43665;DHT22;29263;48.172;11.484;2024-03-22T07:36:02;8.60;99.90
43665;DHT22;29263;48.172;11.484;2024-03-22T07:38:28;8.60;99.90
43665;DHT22;29263;48.172;11.484;2024-03-22T07:40:54;8.50;99.90
43665;DHT22;29263;48.172;11.484;2024-03-22T07:43:20;8.60;99.90
43665;DHT22;29263;48.172;11.484;2024-03-22T07:45:45;8.60;99.90
43665;DHT22;29263;48.172;11.484;2024-03-22T07:48:11;8.60;99.90
43665;DHT22;29263;48.172;11.484;2024-03-22T07:50:37;8.70;99.90
43665;DHT22;29263;48.172;11.484;2024-03-22T07:53:02;8.80;99.90
43665;DHT22;29263;48.172;11.484;2024-03-22T07:55:28;8.80;99.90
43665;DHT22;29263;48.172;11.484;2024-03-22T07:57:54;8.90;99.90
43665;DHT22;29263;48.172;11.484;2024-03-22T08:00:20;9.00;99.90
43665;DHT22;29263;48.172;11.484;2024-03-22T08:02:45;9.00;99.90
43665;DHT22;29263;48.172;11.484;2024-03-22T08:05:11;9.10;99.90
43665;DHT22;29263;48.172;11.484;2024-03-22T08:07:36;9.20;99.90
43665;DHT22;29263;48.172;11.484;2024-03-22T08:10:02;9.20;99.90
43665;DHT22;29263;48.172;11.484;2024-03-22T08:12:29;9.40;99.90
43665;DHT22;29263;48.172;11.484;2024-03-22T08:14:55;9.40;99.90
43665;DHT22;29263;48.172;11.484;2024-03-22T08:17:21;9.60;99.90
43665;DHT22;29263;48.172;11.484;2024-03-22T08:19:46;9.70;99.90
43665;DHT22;29263;48.172;11.484;2024-03-22T08:22:12;9.80;99.90
43665;DHT22;29263;48.172;11.484;2024-03-22T08:24:39;10.00;99.90
43665;DHT22;29263;48.172;11.484;2024-03-22T08:27:05;10.20;99.90
43665;DHT22;29263;48.172;11.484;2024-03-22T08:29:31;10.50;99.90
43665;DHT22;29263;48.172;11.484;2024-03-22T08:31:56;10.80;99.90
43665;DHT22;29263;48.172;11.484;2024-03-22T08:34:22;11.10;99.90
43665;DHT22;29263;48.172;11.484;2024-03-22T08:36:48;11.30;99.90
43665;DHT22;29263;48.172;11.484;2024-03-22T08:39:13;11.50;99.90
43665;DHT22;29263;48.172;11.484;2024-03-22T08:41:40;11.60;99.90
43665;DHT22;29263;48.172;11.484;2024-03-22T08:44:06;11.80;99.90
43665;DHT22;29263;48.172;11.484;2024-03-22T08:46:32;12.00;99.90
43665;DHT22;29263;48.172;11.484;2024-03-22T08:48:58;12.10;99.90
43665;DHT22;29263;48.172;11.484;2024-03-22T08:51:24;12.30;99.90
43665;DHT22;29263;48.172;11.484;2024-03-22T08:53:50;12.40;99.90
43665;DHT22;29263;48.172;11.484;2024-03-22T08:56:16;12.50;99.90
43665;DHT22;29263;48.172;11.484;2024-03-22T08:58:41;12.60;99.90
43665;DHT22;29263;48.172;11.484;2024-03-22T09:01:07;12.50;99.90
43665;DHT22;29263;48.172;11.484;2024-03-22T09:03:35;12.70;99.90
43665;DHT22;29263;48.172;11.484;2024-03-22T09:06:01;12.80;99.90
43665;DHT22;29263;48.172;11.484;2024-03-22T09:08:28;13.00;99.90
43665;DHT22;29263;48.172;11.484;2024-03-22T09:10:54;13.10;99.90
43665;DHT22;29263;48.172;11.484;2024-03-22T09:13:27;13.20;99.90
43665;DHT22;29263;48.172;11.484;2024-03-22T09:15:59;13.20;99.90
43665;DHT22;29263;48.172;11.484;2024-03-22T09:28:20;13.20;99.90
43665;DHT22;29263;48.172;11.484;2024-03-22T09:34:20;13.60;99.90
43665;DHT22;29263;48.172;11.484;2024-03-22T10:08:53;14.90;99.80
43665;DHT22;29263;48.172;11.484;2024-03-22T10:11:37;15.20;97.60
43665;DHT22;29263;48.172;11.484;2024-03-22T10:14:06;15.20;98.30
43665;DHT22;29263;48.172;11.484;2024-03-22T10:16:35;15.30;98.70
43665;DHT22;29263;48.172;11.484;2024-03-22T10:19:00;15.50;98.70
43665;DHT22;29263;48.172;11.484;2024-03-22T10:21:26;15.60;97.40
43665;DHT22;29263;48.172;11.484;2024-03-22T10:23:53;15.50;95.70
43665;DHT22;29263;48.172;11.484;2024-03-22T10:26:19;15.20;97.10
43665;DHT22;29263;48.172;11.484;2024-03-22T10:28:46;15.30;97.00
43665;DHT22;29263;48.172;11.484;2024-03-22T10:31:15;15.40;96.80
43665;DHT22;29263;48.172;11.484;2024-03-22T10:33:41;15.50;97.60
43665;DHT22;29263;48.172;11.484;2024-03-22T10:36:07;15.50;96.40
43665;DHT22;29263;48.172;11.484;2024-03-22T10:38:36;15.50;96.00
43665;DHT22;29263;48.172;11.484;2024-03-22T10:41:03;15.50;96.00
43665;DHT22;29263;48.172;11.484;2024-03-22T10:43:29;15.50;97.70
43665;DHT22;29263;48.172;11.484;2024-03-22T10:45:57;15.70;95.20
43665;DHT22;29263;48.172;11.484;2024-03-22T10:48:30;15.80;95.20
43665;DHT22;29263;48.172;11.484;2024-03-22T10:51:00;15.90;94.40
43665;DHT22;29263;48.172;11.484;2024-03-22T10:53:26;16.00;95.30
43665;DHT22;29263;48.172;11.484;2024-03-22T10:55:53;16.10;95.20
43665;DHT22;29263;48.172;11.484;2024-03-22T10:58:22;16.20;94.40
43665;DHT22;29263;48.172;11.484;2024-03-22T11:00:51;16.30;93.10
43665;DHT22;29263;48.172;11.484;2024-03-22T11:03:20;16.30;93.40
43665;DHT22;29263;48.172;11.484;2024-03-22T11:05:46;16.30;93.00
43665;DHT22;29263;48.172;11.484;2024-03-22T11:08:12;16.30;93.60
43665;DHT22;29263;48.172;11.484;2024-03-22T11:10:38;16.40;93.30
43665;DHT22;29263;48.172;11.484;2024-03-22T11:13:05;16.60;93.70
43665;DHT22;29263;48.172;11.484;2024-03-22T11:15:32;16.80;93.10
43665;DHT22;29263;48.172;11.484;2024-03-22T11:17:58;16.90;92.00
43665;DHT22;29263;48.172;11.484;2024-03-22T11:20:27;16.90;92.60
43665;DHT22;29263;48.172;11.484;2024-03-22T11:22:55;16.90;93.00
43665;DHT22;29263;48.172;11.484;2024-03-22T11:25:21;17.10;91.30
43665;DHT22;29263;48.172;11.484;2024-03-22T11:27:47;17.10;91.80
43665;DHT22;29263;48.172;11.484;2024-03-22T11:30:13;17.00;91.60
43665;DHT22;29263;48.172;11.484;2024-03-22T11:32:39;17.20;91.10
43665;DHT22;29263;48.172;11.484;2024-03-22T11:35:10;17.20;90.30
43665;DHT22;29263;48.172;11.484;2024-03-22T11:37:35;17.10;90.50
43665;DHT22;29263;48.172;11.484;2024-03-22T11:40:01;17.20;91.90
43665;DHT22;29263;48.172;11.484;2024-03-22T11:42:32;17.20;91.40
43665;DHT22;29263;48.172;11.484;2024-03-22T11:44:59;17.40;90.70
43665;DHT22;29263;48.172;11.484;2024-03-22T11:47:25;17.30;90.50
43665;DHT22;29263;48.172;11.484;2024-03-22T11:49:51;17.00;90.10
43665;DHT22;29263;48.172;11.484;2024-03-22T11:52:16;17.00;90.80
43665;DHT22;29263;48.172;11.484;2024-03-22T11:54:42;17.10;91.10
43665;DHT22;29263;48.172;11.484;2024-03-22T11:57:09;17.10;90.60
43665;DHT22;29263;48.172;11.484;2024-03-22T11:59:35;17.10;90.80
43665;DHT22;29263;48.172;11.484;2024-03-22T12:02:00;17.10;89.50
43665;DHT22;29263;48.172;11.484;2024-03-22T12:04:26;17.20;90.10
43665;DHT22;29263;48.172;11.484;2024-03-22T12:06:52;17.20;89.80
43665;DHT22;29263;48.172;11.484;2024-03-22T12:09:18;17.20;90.90
43665;DHT22;29263;48.172;11.484;2024-03-22T12:11:44;17.20;88.90
43665;DHT22;29263;48.172;11.484;2024-03-22T12:14:10;17.30;90.30
43665;DHT22;29263;48.172;11.484;2024-03-22T12:16:35;17.50;90.60
43665;DHT22;29263;48.172;11.484;2024-03-22T12:19:01;17.40;89.00
43665;DHT22;29263;48.172;11.484;2024-03-22T12:21:28;17.40;90.00
43665;DHT22;29263;48.172;11.484;2024-03-22T12:23:54;17.40;90.10
43665;DHT22;29263;48.172;11.484;2024-03-22T12:26:19;17.40;88.60
43665;DHT22;29263;48.172;11.484;2024-03-22T12:28:45;17.20;89.50
43665;DHT22;29263;48.172;11.484;2024-03-22T12:31:11;17.20;89.50
43665;DHT22;29263;48.172;11.484;2024-03-22T12:33:36;17.20;90.90
43665;DHT22;29263;48.172;11.484;2024-03-22T12:36:03;17.20;90.40
43665;DHT22;29263;48.172;11.484;2024-03-22T12:38:29;17.30;88.60
43665;DHT22;29263;48.172;11.484;2024-03-22T12:40:55;17.40;87.60
43665;DHT22;29263;48.172;11.484;2024-03-22T12:43:20;17.50;88.00
43665;DHT22;29263;48.172;11.484;2024-03-22T12:45:46;17.60;86.80
43665;DHT22;29263;48.172;11.484;2024-03-22T12:48:12;17.60;87.50
43665;DHT22;29263;48.172;11.484;2024-03-22T12:50:38;17.50;88.80
43665;DHT22;29263;48.172;11.484;2024-03-22T12:53:04;17.60;88.00
43665;DHT22;29263;48.172;11.484;2024-03-22T12:55:30;17.80;87.30
43665;DHT22;29263;48.172;11.484;2024-03-22T12:57:57;17.80;85.20
43665;DHT22;29263;48.172;11.484;2024-03-22T13:00:22;17.90;84.40
43665;DHT22;29263;48.172;11.484;2024-03-22T13:02:48;18.00;85.80
43665;DHT22;29263;48.172;11.484;2024-03-22T13:05:14;18.10;86.80
43665;DHT22;29263;48.172;11.484;2024-03-22T13:07:41;18.30;85.30
43665;DHT22;29263;48.172;11.484;2024-03-22T13:10:07;18.40;85.10
43665;DHT22;29263;48.172;11.484;2024-03-22T13:12:33;18.30;84.10
43665;DHT22;29263;48.172;11.484;2024-03-22T13:15:00;18.30;85.00
43665;DHT22;29263;48.172;11.484;2024-03-22T13:17:26;18.50;83.40
43665;DHT22;29263;48.172;11.484;2024-03-22T13:19:51;18.70;82.10
43665;DHT22;29263;48.172;11.484;2024-03-22T13:22:17;18.70;84.00
43665;DHT22;29263;48.172;11.484;2024-03-22T13:24:47;18.80;83.10
43665;DHT22;29263;48.172;11.484;2024-03-22T13:27:13;18.70;83.20
43665;DHT22;29263;48.172;11.484;2024-03-22T13:29:39;18.80;80.80
43665;DHT22;29263;48.172;11.484;2024-03-22T13:32:05;18.90;81.40
43665;DHT22;29263;48.172;11.484;2024-03-22T13:34:36;19.10;79.20
43665;DHT22;29263;48.172;11.484;2024-03-22T13:37:02;19.10;81.50
43665;DHT22;29263;48.172;11.484;2024-03-22T13:39:28;19.20;80.30
43665;DHT22;29263;48.172;11.484;2024-03-22T13:41:57;19.60;79.00
43665;DHT22;29263;48.172;11.484;2024-03-22T13:44:23;19.80;80.40
43665;DHT22;29263;48.172;11.484;2024-03-22T13:46:50;19.90;76.90
43665;DHT22;29263;48.172;11.484;2024-03-22T13:49:17;20.00;76.10
43665;DHT22;29263;48.172;11.484;2024-03-22T13:51:49;19.90;75.90
43665;DHT22;29263;48.172;11.484;2024-03-22T13:54:15;19.90;76.20
43665;DHT22;29263;48.172;11.484;2024-03-22T13:56:41;20.20;74.60
43665;DHT22;29263;48.172;11.484;2024-03-22T13:59:07;20.50;76.70
43665;DHT22;29263;48.172;11.484;2024-03-22T14:01:36;20.60;75.90
43665;DHT22;29263;48.172;11.484;2024-03-22T14:04:05;21.00;70.20
43665;DHT22;29263;48.172;11.484;2024-03-22T14:06:32;21.00;70.50
43665;DHT22;29263;48.172;11.484;2024-03-22T14:08:58;20.90;70.10
43665;DHT22;29263;48.172;11.484;2024-03-22T14:11:27;21.30;69.40
43665;DHT22;29263;48.172;11.484;2024-03-22T14:13:53;21.60;68.10
43665;DHT22;29263;48.172;11.484;2024-03-22T14:16:19;21.50;67.70
43665;DHT22;29263;48.172;11.484;2024-03-22T14:18:44;21.90;67.30
43665;DHT22;29263;48.172;11.484;2024-03-22T14:21:10;22.30;65.10
43665;DHT22;29263;48.172;11.484;2024-03-22T14:23:39;22.30;64.80
43665;DHT22;29263;48.172;11.484;2024-03-22T14:26:05;22.30;63.60
43665;DHT22;29263;48.172;11.484;2024-03-22T14:28:31;22.70;64.80
43665;DHT22;29263;48.172;11.484;2024-03-22T14:30:56;23.40;63.10
43665;DHT22;29263;48.172;11.484;2024-03-22T14:33:22;24.10;62.20
43665;DHT22;29263;48.172;11.484;2024-03-22T14:35:47;24.40;62.10
43665;DHT22;29263;48.172;11.484;2024-03-22T14:38:14;24.40;59.10
43665;DHT22;29263;48.172;11.484;2024-03-22T14:40:39;24.40;59.10
43665;DHT22;29263;48.172;11.484;2024-03-22T14:43:05;24.80;60.10
43665;DHT22;29263;48.172;11.484;2024-03-22T14:45:31;25.10;55.70
43665;DHT22;29263;48.172;11.484;2024-03-22T14:47:57;24.40;56.40
43665;DHT22;29263;48.172;11.484;2024-03-22T14:50:23;24.00;56.00
43665;DHT22;29263;48.172;11.484;2024-03-22T14:52:49;23.60;57.80
43665;DHT22;29263;48.172;11.484;2024-03-22T14:55:15;22.90;59.60
43665;DHT22;29263;48.172;11.484;2024-03-22T14:57:41;22.60;58.80
43665;DHT22;29263;48.172;11.484;2024-03-22T15:00:07;22.20;60.10
43665;DHT22;29263;48.172;11.484;2024-03-22T15:02:36;21.90;61.80
43665;DHT22;29263;48.172;11.484;2024-03-22T15:05:02;21.40;63.60
43665;DHT22;29263;48.172;11.484;2024-03-22T15:07:29;21.10;64.70
43665;DHT22;29263;48.172;11.484;2024-03-22T15:09:55;20.80;66.10
43665;DHT22;29263;48.172;11.484;2024-03-22T15:12:21;20.70;66.80
43665;DHT22;29263;48.172;11.484;2024-03-22T15:14:46;20.50;66.70
43665;DHT22;29263;48.172;11.484;2024-03-22T15:17:12;20.50;68.10
43665;DHT22;29263;48.172;11.484;2024-03-22T15:19:41;20.60;66.30
43665;DHT22;29263;48.172;11.484;2024-03-22T15:22:08;20.80;64.80
43665;DHT22;29263;48.172;11.484;2024-03-22T15:24:34;21.00;65.50
43665;DHT22;29263;48.172;11.484;2024-03-22T15:26:59;20.90;64.30
43665;DHT22;29263;48.172;11.484;2024-03-22T15:29:25;20.70;66.60
43665;DHT22;29263;48.172;11.484;2024-03-22T15:31:50;20.60;67.40
43665;DHT22;29263;48.172;11.484;2024-03-22T15:34:16;20.60;66.10
43665;DHT22;29263;48.172;11.484;2024-03-22T15:36:42;20.60;65.70
43665;DHT22;29263;48.172;11.484;2024-03-22T15:39:07;20.50;66.50
43665;DHT22;29263;48.172;11.484;2024-03-22T15:41:33;20.70;65.80
43665;DHT22;29263;48.172;11.484;2024-03-22T15:43:59;21.00;64.10
43665;DHT22;29263;48.172;11.484;2024-03-22T15:46:24;21.00;62.50
43665;DHT22;29263;48.172;11.484;2024-03-22T15:48:50;20.90;63.00
43665;DHT22;29263;48.172;11.484;2024-03-22T15:51:17;20.70;60.60
43665;DHT22;29263;48.172;11.484;2024-03-22T15:53:42;20.70;58.30
43665;DHT22;29263;48.172;11.484;2024-03-22T15:56:08;20.70;58.20
43665;DHT22;29263;48.172;11.484;2024-03-22T15:58:34;20.50;58.30
43665;DHT22;29263;48.172;11.484;2024-03-22T16:01:00;20.40;52.00
43665;DHT22;29263;48.172;11.484;2024-03-22T16:03:25;20.30;53.20